This demonstration page uses our WeatherBlox Daily Observations layout. Learn more.

36.17497, -115.13722

Hourly Observations for October 25, 2018

Temp ( °F °C ) Dew Point ( °F °C ) Humidity (%) Winds ( mph kmh ) Pressure ( in mb ) Visibility ( mi km ) Precip ( " mm )
12:53 am 00:53 Clear 63 17.2 40 4.4 43 43 WSW 6 9 30 1016 10 16.09344 0 0
1:53 am 01:53 Clear 62 16.7 39 3.9 43 43 NW 3 6 29.97 1015 10 16.09344 0 0
2:53 am 02:53 Clear 64 17.8 34 1.1 33 33 N 3 6 30 1016 10 16.09344 0 0
3:53 am 03:53 Clear 58 14.4 36 2.2 44 44 NNW 7 11 30 1016 10 16.09344 0 0
4:53 am 04:53 Clear 63 17.2 32 0 31 31 NW 10 17 30 1016 10 16.09344 0 0
5:53 am 05:53 Clear 62 16.7 32 0 32 32 NNW 6 9 30.03 1017 10 16.09344 0 0
6:53 am 06:53 Clear 63 17.2 31 -0.6 30 30 NNW 10 17 30.03 1017 10 16.09344 0 0
7:53 am 07:53 Sunny 62 16.7 32 0 32 32 WNW 8 13 30.06 1018 10 16.09344 0 0
8:53 am 08:53 Sunny 67 19.4 33 0.6 28 28 ESE 3 6 30.06 1018 10 16.09344 0 0
9:53 am 09:53 Sunny 71 21.7 33 0.6 25 25 Calm 30.09 1019 10 16.09344 0 0
10:53 am 10:53 Sunny 73 22.8 33 0.6 23 23 Calm 30.09 1019 10 16.09344 0 0
11:53 am 11:53 Sunny 76 24.4 33 0.6 21 21 Calm 30.06 1018 10 16.09344 0 0
12:53 pm 12:53 Sunny 78 25.6 34 1.1 20 20 N 5 7 30.03 1017 10 16.09344 0 0
1:53 pm 13:53 Sunny 80 26.7 36 2.2 20 20 SSE 8 13 30.03 1017 10 16.09344 0 0
2:53 pm 14:53 Sunny 81 27.2 34 1.1 18 18 SE 6 9 30 1016 10 16.09344 0 0
3:53 pm 15:53 Sunny 81 27.2 33 0.6 18 18 N 3 6 30 1016 10 16.09344 0 0
4:53 pm 16:53 Sunny 81 27.2 33 0.6 18 18 ESE 5 7 30 1016 10 16.09344 0 0
5:53 pm 17:53 Clear 79 26.1 32 0 18 18 ESE 3 6 30 1016 10 16.09344 0 0
6:53 pm 18:53 Clear 75 23.9 35 1.7 23 23 Calm 30 1016 10 16.09344 0 0
7:53 pm 19:53 Clear 72 22.2 37 2.8 28 28 WNW 7 11 30.03 1017 10 16.09344 0 0
8:53 pm 20:53 Clear 70 21.1 36 2.2 29 29 WNW 7 11 30.03 1017 10 16.09344 0 0
9:53 pm 21:53 Clear 68 20 36 2.2 31 31 WNW 8 13 30.03 1017 10 16.09344 0 0
10:53 pm 22:53 Clear 69 20.6 33 0.6 26 26 NNW 10 17 30.06 1018 10 16.09344 0 0
11:53 pm 23:53 Clear 68 20 32 0 26 26 N 3 6 30.06 1018 10 16.09344 0 0

Powered by AerisWeather